WITT/BTJ METAR and TAF weather

Enter ICAO airport designator
Station Type Date Time Source
WITT METAR UTC NOAA

Error!


Station Type Date Time Source
WITT Decoded METAR UTC NOAA

Error!

Station Type Date Time Source
WITT TAF 2018/12/11 18:00 UTC NOAA

TAF WITT 111700Z 1118/1218 15005KT 7000 SCT018
TEMPO 1209/1212 3000 -RA FEW015CB SCT016
BECMG 1215/1217 VRB05KT 6000 SCT018


Example: see airport list